Terminal Aerodrome Forecast
Issued by NWS

Home | Current Version | Previous Version | Text Only | Print | Product List | Glossary On
Versions: 1 2 3 4 5 6 7 8 9 10 11 12 13 14 15 16
000
FTUS41 KCAR 301725
TAFPQI
TAF
KPQI 301725Z 3018/3118 17010KT P6SM BKN250
     FM310000 17006KT 5SM -SHRA BKN050
     FM310400 18006KT 5SM BR SCT006 BKN015
     FM310900 18005KT 2SM BR OVC006
     FM311400 22007KT P6SM SCT006 BKN250
      AMD LTD TO CLD VIS AND WIND=

USA.gov is the U.S. government's official web portal to all federal, state and local government web resources and services.